الصفحة الرئيسية
METAR-TAF:

METAR-TAF

مطار :

Lismore, أستراليا

دائرة عرض: 28-49-41S, خط طول: 153-15-36E, ارتفاع: 11 متر

مراقبة الطقس الحالي

تاريخ ووقت الإصدار 25 دقيقة قبل الساعة 14:00UTC
رياح هادئة
درجة الحرارة 16°درجة مئوية
الرطوبة 94%
ضغط 1017 hPa
الرؤية 10 كم أو أكثر
غيوم مفككة على ارتفاع 5700 قدم

METAR: YLIS 061400Z AUTO 00000KT 9999 // BKN057 16/15 Q1017

زمن: 00:25 (14:25 UTC)


TAF: مفقودة

أرصاد الطقس والتوقعات من أكثر من 4000 مطار (تقارير الطقس للمطار METAR والتنبؤ بالطقس بالمطارTAF).

المحطات المتاحة هي النقط الصفراء والحمراء على الخريطة.

حرك المؤشر فوق النقطة لمعرفة اسم المحطة.

ثم انقر لمعرفة أرصاد وتوقعات الطقس.

لتغيير الخارطة: اضغط على الأزرار الخضراء مع رمز الصليب الأسود للتكبير. على الزر الأخضر مع شرطة للتصغير، أو على الأسهم الخضراء للخرائط المجاورة.


METAR-TAF: